createdAt,value
2022-10-18T00:00:06.588Z,11.68
2022-10-18T00:01:08.509Z,11.66
2022-10-18T00:02:10.125Z,11.72
2022-10-18T00:03:11.718Z,11.72
2022-10-18T00:04:13.390Z,11.71
2022-10-18T00:05:15.005Z,11.69
2022-10-18T00:06:16.567Z,11.71
2022-10-18T00:07:18.143Z,11.72
2022-10-18T00:08:19.907Z,11.71
2022-10-18T00:09:21.528Z,11.73
2022-10-18T00:10:24.724Z,11.72
2022-10-18T00:11:26.264Z,11.73
2022-10-18T00:12:27.835Z,11.73
2022-10-18T00:13:29.389Z,11.69
2022-10-18T00:14:31.028Z,11.69
2022-10-18T00:15:32.654Z,11.68
2022-10-18T00:16:34.211Z,11.69
2022-10-18T00:17:36.358Z,11.66
2022-10-18T00:18:38.014Z,11.68
2022-10-18T00:19:39.726Z,11.71
2022-10-18T00:20:41.271Z,11.71
2022-10-18T00:21:46.003Z,11.69
2022-10-18T00:22:47.540Z,11.72
2022-10-18T00:23:49.538Z,11.75
2022-10-18T00:24:51.338Z,11.71
2022-10-18T00:26:04.349Z,11.68
2022-10-18T00:27:05.911Z,11.69
2022-10-18T00:28:07.469Z,11.69
2022-10-18T00:29:13.070Z,11.65
2022-10-18T00:30:14.694Z,11.66
2022-10-18T00:31:20.078Z,11.66
2022-10-18T00:32:21.671Z,11.68
2022-10-18T00:33:23.250Z,11.65
2022-10-18T00:34:24.801Z,11.66
2022-10-18T00:35:26.414Z,11.71
2022-10-18T00:36:29.008Z,11.66
2022-10-18T00:37:30.539Z,11.62
2022-10-18T00:38:32.093Z,11.64
2022-10-18T00:39:33.703Z,11.64
2022-10-18T00:40:35.311Z,11.61
2022-10-18T00:41:38.069Z,11.61
2022-10-18T00:42:39.673Z,11.58
2022-10-18T00:43:59.794Z,11.61
2022-10-18T00:45:13.284Z,11.57
2022-10-18T00:46:14.901Z,11.59
2022-10-18T00:47:16.848Z,11.59
2022-10-18T00:48:18.446Z,11.55
2022-10-18T00:49:32.221Z,11.50
2022-10-18T00:50:34.483Z,11.51
2022-10-18T00:51:44.378Z,11.50
2022-10-18T00:52:48.786Z,11.46
2022-10-18T00:53:50.359Z,11.42
2022-10-18T00:54:51.906Z,11.48
2022-10-18T00:55:53.503Z,11.46
2022-10-18T00:56:55.125Z,11.44
2022-10-18T00:57:56.857Z,11.42
2022-10-18T00:58:58.423Z,11.44
2022-10-18T00:59:59.974Z,11.35
2022-10-18T01:01:01.607Z,11.36
2022-10-18T01:02:03.370Z,11.38
2022-10-18T01:03:05.244Z,11.35
2022-10-18T01:04:06.789Z,11.31
2022-10-18T01:05:10.242Z,11.30
2022-10-18T01:06:11.810Z,11.34
2022-10-18T01:07:25.924Z,11.34
2022-10-18T01:08:33.558Z,11.28
2022-10-18T01:10:04.586Z,11.31
2022-10-18T01:11:24.810Z,11.36
2022-10-18T01:12:44.573Z,11.34
2022-10-18T01:13:54.879Z,11.32
2022-10-18T01:15:37.853Z,11.28
2022-10-18T01:16:56.339Z,11.28
2022-10-18T01:18:19.102Z,11.25
2022-10-18T01:19:48.682Z,11.25
2022-10-18T01:21:17.593Z,11.21
2022-10-18T01:22:28.899Z,11.21
2022-10-18T01:23:45.198Z,11.22
2022-10-18T01:25:18.542Z,11.21
2022-10-18T01:26:50.523Z,11.18
2022-10-18T01:28:29.814Z,11.22
2022-10-18T01:29:40.081Z,11.22
2022-10-18T01:30:43.378Z,11.20
2022-10-18T01:31:50.122Z,11.27
2022-10-18T01:32:53.100Z,11.25
2022-10-18T01:33:58.744Z,11.31
2022-10-18T01:35:03.272Z,11.31
2022-10-18T01:36:28.005Z,11.35
2022-10-18T01:37:29.830Z,11.34
2022-10-18T01:38:31.748Z,11.32
2022-10-18T01:39:35.530Z,11.38
2022-10-18T01:40:37.077Z,11.38
2022-10-18T01:41:39.206Z,11.39
2022-10-18T01:42:40.770Z,11.42
2022-10-18T01:43:42.378Z,11.44
2022-10-18T01:44:43.941Z,11.44
2022-10-18T01:45:45.611Z,11.39
2022-10-18T01:46:47.349Z,11.38
2022-10-18T01:47:48.952Z,11.39
2022-10-18T01:48:50.779Z,11.44
2022-10-18T01:50:00.728Z,11.44
2022-10-18T01:51:02.362Z,11.44
2022-10-18T01:52:04.013Z,11.50
2022-10-18T01:53:05.646Z,11.51
2022-10-18T01:54:07.198Z,11.54
2022-10-18T01:55:08.960Z,11.57
2022-10-18T01:56:31.958Z,11.66
2022-10-18T01:57:42.130Z,11.68
2022-10-18T01:59:06.048Z,11.73
2022-10-18T02:00:18.524Z,11.76
2022-10-18T02:01:31.153Z,11.78
2022-10-18T02:02:41.558Z,11.85
2022-10-18T02:03:44.146Z,11.86
2022-10-18T02:05:07.240Z,11.89
2022-10-18T02:06:11.717Z,11.93
2022-10-18T02:08:12.058Z,11.93
2022-10-18T02:09:20.643Z,11.99
2022-10-18T02:10:33.233Z,11.99
2022-10-18T02:11:34.753Z,11.97
2022-10-18T02:12:37.191Z,11.97
2022-10-18T02:13:48.519Z,11.97
2022-10-18T02:14:50.134Z,11.97
2022-10-18T02:15:54.650Z,11.97
2022-10-18T02:16:57.077Z,12.00
2022-10-18T02:17:58.810Z,11.99
2022-10-18T02:19:03.895Z,12.00
2022-10-18T02:20:05.956Z,11.99
2022-10-18T02:21:08.516Z,12.00
2022-10-18T02:22:10.973Z,11.99
2022-10-18T02:23:12.534Z,11.93
2022-10-18T02:24:14.416Z,11.96
2022-10-18T02:25:18.290Z,11.92
2022-10-18T02:26:19.934Z,11.95
2022-10-18T02:27:21.674Z,11.92
2022-10-18T02:29:30.018Z,11.87
2022-10-18T02:30:36.463Z,11.83
2022-10-18T02:31:49.675Z,11.82
2022-10-18T02:33:00.154Z,11.81
2022-10-18T02:34:15.590Z,11.78
2022-10-18T02:35:23.532Z,11.76
2022-10-18T02:36:31.465Z,11.75
2022-10-18T02:37:35.585Z,11.73
2022-10-18T02:38:37.153Z,11.75
2022-10-18T02:39:42.831Z,11.68
2022-10-18T02:40:44.501Z,11.66
2022-10-18T02:41:46.154Z,11.66
2022-10-18T02:42:57.572Z,11.65
2022-10-18T02:43:59.116Z,11.65
2022-10-18T02:45:00.676Z,11.64
2022-10-18T02:46:02.539Z,11.62
2022-10-18T02:47:04.496Z,11.62
2022-10-18T02:48:06.369Z,11.59
2022-10-18T02:49:07.962Z,11.58
2022-10-18T02:50:09.764Z,11.58
2022-10-18T02:51:11.352Z,11.61
2022-10-18T02:52:12.893Z,11.58
2022-10-18T02:53:14.528Z,11.58
2022-10-18T02:54:16.064Z,11.58
2022-10-18T02:55:17.703Z,11.59
2022-10-18T02:56:19.297Z,11.57
2022-10-18T02:57:20.889Z,11.57
2022-10-18T02:58:22.470Z,11.55
2022-10-18T02:59:24.062Z,11.54
2022-10-18T03:00:25.595Z,11.54
2022-10-18T03:01:27.235Z,11.54
2022-10-18T03:02:28.812Z,11.50
2022-10-18T03:03:30.431Z,11.46
2022-10-18T03:04:32.004Z,11.46
2022-10-18T03:05:33.563Z,11.44
2022-10-18T03:06:35.153Z,11.44
2022-10-18T03:07:36.724Z,11.36
2022-10-18T03:08:39.310Z,11.35
2022-10-18T03:09:40.875Z,11.31
2022-10-18T03:10:46.078Z,11.30
2022-10-18T03:11:47.633Z,11.28
2022-10-18T03:12:49.197Z,11.32
2022-10-18T03:13:51.222Z,11.28
2022-10-18T03:14:52.857Z,11.25
2022-10-18T03:15:54.437Z,11.22
2022-10-18T03:16:56.292Z,11.15
2022-10-18T03:17:58.016Z,11.20
2022-10-18T03:18:59.783Z,11.18
2022-10-18T03:20:01.436Z,11.17
2022-10-18T03:21:06.432Z,11.14
2022-10-18T03:22:08.044Z,11.08
2022-10-18T03:23:09.609Z,11.07
2022-10-18T03:24:11.496Z,11.06
2022-10-18T03:25:13.042Z,11.04
2022-10-18T03:26:14.603Z,10.97
2022-10-18T03:27:16.154Z,10.96
2022-10-18T03:28:17.807Z,10.94
2022-10-18T03:29:19.391Z,10.93
2022-10-18T03:30:20.948Z,10.93
2022-10-18T03:31:22.542Z,10.90
2022-10-18T03:32:24.131Z,10.85
2022-10-18T03:33:25.657Z,10.83
2022-10-18T03:34:27.277Z,10.84
2022-10-18T03:35:28.863Z,10.81
2022-10-18T03:36:30.398Z,10.80
2022-10-18T03:37:32.033Z,10.79
2022-10-18T03:38:33.573Z,10.76
2022-10-18T03:39:35.628Z,10.73
2022-10-18T03:40:37.228Z,10.77
2022-10-18T03:41:38.819Z,10.71
2022-10-18T03:42:40.358Z,10.76
2022-10-18T03:43:41.992Z,10.73
2022-10-18T03:44:43.661Z,10.76
2022-10-18T03:45:45.215Z,10.73
2022-10-18T03:46:46.790Z,10.70
2022-10-18T03:47:48.320Z,10.71
2022-10-18T03:48:49.907Z,10.63
2022-10-18T03:49:54.612Z,10.63
2022-10-18T03:50:58.714Z,10.66
2022-10-18T03:52:00.267Z,10.67
2022-10-18T03:53:01.820Z,10.61
2022-10-18T03:54:03.662Z,10.61
2022-10-18T03:55:05.716Z,10.63
2022-10-18T03:56:07.278Z,10.59
2022-10-18T03:57:08.875Z,10.56
2022-10-18T03:58:10.910Z,10.53
2022-10-18T03:59:12.589Z,10.50
2022-10-18T04:00:14.261Z,10.50
2022-10-18T04:01:15.898Z,10.42
2022-10-18T04:02:17.512Z,10.39
2022-10-18T04:03:19.586Z,10.36
2022-10-18T04:04:21.298Z,10.40
2022-10-18T04:05:28.064Z,10.39
2022-10-18T04:06:29.618Z,10.33
2022-10-18T04:07:31.267Z,10.35
2022-10-18T04:08:32.861Z,10.36
2022-10-18T04:09:34.489Z,10.36
2022-10-18T04:10:37.888Z,10.35
2022-10-18T04:11:39.446Z,10.35
2022-10-18T04:12:41.108Z,10.33
2022-10-18T04:13:42.739Z,10.33
2022-10-18T04:14:44.352Z,10.33
2022-10-18T04:15:46.007Z,10.33
2022-10-18T04:16:47.663Z,10.32
2022-10-18T04:17:49.245Z,10.33
2022-10-18T04:18:50.884Z,10.36
2022-10-18T04:19:52.704Z,10.33
2022-10-18T04:20:54.264Z,10.35
2022-10-18T04:21:55.922Z,10.38
2022-10-18T04:22:58.119Z,10.33
2022-10-18T04:23:59.687Z,10.32
2022-10-18T04:25:01.459Z,10.32
2022-10-18T04:26:03.028Z,10.33
2022-10-18T04:27:05.412Z,10.26
2022-10-18T04:28:07.241Z,10.23
2022-10-18T04:29:08.845Z,10.20
2022-10-18T04:30:10.883Z,10.23
2022-10-18T04:31:12.458Z,10.18
2022-10-18T04:32:14.009Z,10.19
2022-10-18T04:33:15.576Z,10.16
2022-10-18T04:34:17.183Z,10.12
2022-10-18T04:35:19.875Z,10.09
2022-10-18T04:36:21.475Z,10.08
2022-10-18T04:37:23.274Z,10.06
2022-10-18T04:38:24.818Z,10.02
2022-10-18T04:39:26.371Z,10.01
2022-10-18T04:40:28.011Z,9.98
2022-10-18T04:41:29.574Z,9.97
2022-10-18T04:42:31.173Z,9.98
2022-10-18T04:43:32.723Z,9.94
2022-10-18T04:44:34.507Z,9.94
2022-10-18T04:45:36.126Z,9.94
2022-10-18T04:46:37.659Z,9.92
2022-10-18T04:47:39.262Z,9.89
2022-10-18T04:48:40.824Z,9.92
2022-10-18T04:49:42.381Z,9.91
2022-10-18T04:50:45.248Z,9.87
2022-10-18T04:51:46.804Z,9.88
2022-10-18T04:53:54.831Z,9.87
2022-10-18T04:54:56.426Z,9.88
2022-10-18T04:55:58.042Z,9.88
2022-10-18T04:56:59.672Z,9.85
2022-10-18T04:58:01.299Z,9.85
2022-10-18T04:59:02.861Z,9.87
2022-10-18T05:00:04.885Z,9.84
2022-10-18T05:01:07.329Z,9.84
2022-10-18T05:02:08.955Z,9.82
2022-10-18T05:03:11.196Z,9.87
2022-10-18T05:04:12.761Z,9.85
2022-10-18T05:05:14.464Z,9.84
2022-10-18T05:06:16.143Z,9.85
2022-10-18T05:07:18.134Z,9.85
2022-10-18T05:08:19.719Z,9.87
2022-10-18T05:09:24.577Z,9.89
2022-10-18T05:10:26.204Z,9.92
2022-10-18T05:11:27.862Z,9.88
2022-10-18T05:12:29.913Z,9.92
2022-10-18T05:13:31.743Z,9.94
2022-10-18T05:14:33.298Z,9.91
2022-10-18T05:15:34.857Z,9.89
2022-10-18T05:16:36.657Z,9.92
2022-10-18T05:17:38.227Z,9.98
2022-10-18T05:18:39.938Z,10.01
2022-10-18T05:19:41.606Z,10.02
2022-10-18T05:20:43.163Z,10.08
2022-10-18T05:21:44.761Z,10.05
2022-10-18T05:22:46.319Z,10.06
2022-10-18T05:23:47.861Z,10.03
2022-10-18T05:24:49.410Z,10.01
2022-10-18T05:25:50.991Z,10.06
2022-10-18T05:26:52.627Z,10.06
2022-10-18T05:27:54.241Z,10.12
2022-10-18T05:28:55.935Z,10.13
2022-10-18T05:29:59.975Z,10.16
2022-10-18T05:31:05.288Z,10.15
2022-10-18T05:32:06.959Z,10.22
2022-10-18T05:33:08.587Z,10.20
2022-10-18T05:34:10.118Z,10.25
2022-10-18T05:35:11.720Z,10.28
2022-10-18T05:36:13.310Z,10.26
2022-10-18T05:37:15.011Z,10.30
2022-10-18T05:38:16.589Z,10.33
2022-10-18T05:39:18.139Z,10.35
2022-10-18T05:40:19.705Z,10.38
2022-10-18T05:41:21.270Z,10.35
2022-10-18T05:42:22.909Z,10.35
2022-10-18T05:43:27.707Z,10.40
2022-10-18T05:44:29.263Z,10.42
2022-10-18T05:45:30.852Z,10.45
2022-10-18T05:46:32.684Z,10.55
2022-10-18T05:48:36.769Z,10.73
2022-10-18T05:49:38.338Z,10.81
2022-10-18T05:50:40.464Z,11.00
2022-10-18T05:51:42.194Z,11.15
2022-10-18T05:52:43.806Z,11.32
2022-10-18T05:53:45.468Z,11.50
2022-10-18T05:54:47.073Z,11.69
2022-10-18T05:55:48.602Z,11.90
2022-10-18T05:56:50.198Z,12.10
2022-10-18T05:57:52.029Z,12.23
2022-10-18T05:58:53.611Z,12.26
2022-10-18T05:59:55.171Z,12.26
2022-10-18T06:01:03.027Z,12.25
2022-10-18T06:02:04.606Z,12.17
2022-10-18T06:03:06.305Z,12.10
2022-10-18T06:04:08.176Z,12.10
2022-10-18T06:05:09.729Z,12.06
2022-10-18T06:06:12.148Z,12.02
2022-10-18T06:07:13.747Z,12.03
2022-10-18T06:08:15.438Z,11.99
2022-10-18T06:09:17.019Z,12.05
2022-10-18T06:10:18.566Z,12.06
2022-10-18T06:11:21.403Z,11.99
2022-10-18T06:12:22.931Z,11.97
2022-10-18T06:13:24.578Z,11.99
2022-10-18T06:14:26.123Z,11.99
2022-10-18T06:15:27.693Z,12.06
2022-10-18T06:16:32.388Z,12.06
2022-10-18T06:17:34.738Z,12.06
2022-10-18T06:18:36.908Z,12.10
2022-10-18T06:19:38.455Z,12.13
2022-10-18T06:20:40.030Z,12.19
2022-10-18T06:21:41.589Z,12.22
2022-10-18T06:22:43.161Z,12.27
2022-10-18T06:23:49.059Z,12.32
2022-10-18T06:24:55.082Z,12.38
2022-10-18T06:26:02.654Z,12.50
2022-10-18T06:27:09.346Z,12.54
2022-10-18T06:28:12.191Z,12.64
2022-10-18T06:29:14.660Z,12.67
2022-10-18T06:30:16.286Z,12.71
2022-10-18T06:31:18.475Z,12.78
2022-10-18T06:32:20.183Z,12.84
2022-10-18T06:33:21.819Z,12.91
2022-10-18T06:34:23.981Z,12.97
2022-10-18T06:35:25.534Z,13.02
2022-10-18T06:36:27.231Z,13.09
2022-10-18T06:37:32.278Z,13.15
2022-10-18T06:38:34.506Z,13.16
2022-10-18T06:39:36.116Z,13.20
2022-10-18T06:40:38.250Z,13.23
2022-10-18T06:41:39.960Z,13.28
2022-10-18T06:42:43.570Z,13.30
2022-10-18T06:43:49.663Z,13.34
2022-10-18T06:44:51.248Z,13.32
2022-10-18T06:45:53.092Z,13.32
2022-10-18T06:46:54.858Z,13.35
2022-10-18T06:47:58.571Z,13.35
2022-10-18T06:49:00.204Z,13.35
2022-10-18T06:50:01.907Z,13.36
2022-10-18T06:51:04.956Z,13.38
2022-10-18T06:52:07.427Z,13.42
2022-10-18T06:53:09.712Z,13.43
2022-10-18T06:54:17.872Z,13.49
2022-10-18T06:55:19.874Z,13.53
2022-10-18T06:56:21.464Z,13.59
2022-10-18T06:57:23.093Z,13.65
2022-10-18T06:58:24.715Z,13.71
2022-10-18T06:59:28.940Z,13.73
2022-10-18T07:00:32.744Z,13.77
2022-10-18T07:01:34.332Z,13.81
2022-10-18T07:02:37.451Z,13.87
2022-10-18T07:03:39.340Z,13.91
2022-10-18T07:04:40.914Z,13.94
2022-10-18T07:05:42.518Z,14.00
2022-10-18T07:06:44.092Z,14.01
2022-10-18T07:07:45.643Z,14.07
2022-10-18T07:08:47.850Z,14.13
2022-10-18T07:09:49.483Z,14.13
2022-10-18T07:10:53.062Z,14.17
2022-10-18T07:11:54.646Z,14.20
2022-10-18T07:13:13.532Z,14.18
2022-10-18T07:14:17.860Z,14.21
2022-10-18T07:15:22.636Z,14.25
2022-10-18T07:16:24.253Z,14.25
2022-10-18T07:17:26.194Z,14.28
2022-10-18T07:18:27.876Z,14.31
2022-10-18T07:19:29.665Z,14.30
2022-10-18T07:20:31.230Z,14.30
2022-10-18T07:21:32.831Z,14.34
2022-10-18T07:22:34.430Z,14.37
2022-10-18T07:23:37.034Z,14.35
2022-10-18T07:24:38.631Z,14.34
2022-10-18T07:25:40.213Z,14.35
2022-10-18T07:26:42.579Z,14.38
2022-10-18T07:27:44.214Z,14.48
2022-10-18T07:28:47.211Z,14.74
2022-10-18T07:29:49.707Z,14.78
2022-10-18T07:30:51.296Z,14.74
2022-10-18T07:31:52.953Z,14.75
2022-10-18T07:32:54.498Z,14.75
2022-10-18T07:33:56.071Z,14.76
2022-10-18T07:34:57.674Z,14.75
2022-10-18T07:36:03.386Z,14.69
2022-10-18T07:37:05.001Z,14.75
2022-10-18T07:38:06.594Z,14.75
2022-10-18T07:39:08.171Z,14.74
2022-10-18T07:40:11.390Z,14.72
2022-10-18T07:41:13.336Z,14.75
2022-10-18T07:42:14.940Z,14.68
2022-10-18T07:43:16.528Z,14.67
2022-10-18T07:44:18.148Z,14.68
2022-10-18T07:45:19.760Z,14.65
2022-10-18T07:46:21.816Z,14.69
2022-10-18T07:47:23.354Z,14.69
2022-10-18T07:48:25.275Z,14.76
2022-10-18T07:49:26.837Z,14.83
2022-10-18T07:50:28.488Z,14.86
2022-10-18T07:51:32.802Z,14.91
2022-10-18T07:52:34.441Z,14.91
2022-10-18T07:53:36.146Z,14.92
2022-10-18T07:54:37.767Z,14.95
2022-10-18T07:55:39.702Z,15.00
2022-10-18T07:56:41.345Z,15.00
2022-10-18T07:57:42.921Z,15.03
2022-10-18T07:58:44.924Z,15.00
2022-10-18T07:59:48.206Z,15.00
2022-10-18T08:00:49.815Z,14.98
2022-10-18T08:01:51.462Z,15.00
2022-10-18T08:02:59.241Z,14.93
2022-10-18T08:04:06.129Z,14.95
2022-10-18T08:05:09.325Z,14.96
2022-10-18T08:06:12.347Z,15.00
2022-10-18T08:07:13.942Z,14.99
2022-10-18T08:08:15.510Z,15.03
2022-10-18T08:09:17.035Z,15.06
2022-10-18T08:10:18.951Z,15.05
2022-10-18T08:11:22.236Z,15.10
2022-10-18T08:12:23.804Z,15.13
2022-10-18T08:13:25.391Z,15.15
2022-10-18T08:14:26.928Z,15.20
2022-10-18T08:15:28.515Z,15.25
2022-10-18T08:17:34.291Z,15.33
2022-10-18T08:18:36.436Z,15.35
2022-10-18T08:19:38.235Z,15.39
2022-10-18T08:20:43.912Z,15.35
2022-10-18T08:21:45.546Z,15.37
2022-10-18T08:22:50.331Z,15.43
2022-10-18T08:23:52.042Z,15.46
2022-10-18T08:24:53.629Z,15.46
2022-10-18T08:25:55.322Z,15.43
2022-10-18T08:26:56.878Z,15.43
2022-10-18T08:27:59.047Z,15.49
2022-10-18T08:30:23.459Z,15.58
2022-10-18T08:31:25.023Z,15.61
2022-10-18T08:32:29.156Z,15.64
2022-10-18T08:33:31.066Z,15.68
2022-10-18T08:34:32.661Z,15.74
2022-10-18T08:35:34.319Z,15.77
2022-10-18T08:36:35.916Z,15.78
2022-10-18T08:37:38.478Z,15.86
2022-10-18T08:38:40.762Z,15.88
2022-10-18T08:39:42.533Z,15.93
2022-10-18T08:40:44.577Z,15.97
2022-10-18T08:41:58.308Z,16.02
2022-10-18T08:43:03.954Z,16.08
2022-10-18T08:44:22.956Z,16.14
2022-10-18T08:45:41.038Z,16.15
2022-10-18T08:46:48.153Z,16.21
2022-10-18T08:47:52.045Z,16.18
2022-10-18T08:48:54.330Z,16.19
2022-10-18T08:50:01.215Z,16.24
2022-10-18T08:51:04.136Z,16.24
2022-10-18T08:52:17.870Z,16.28
2022-10-18T08:53:19.410Z,16.33
2022-10-18T08:54:37.338Z,16.36
2022-10-18T08:55:42.293Z,16.38
2022-10-18T08:56:46.927Z,16.42
2022-10-18T08:57:49.143Z,16.48
2022-10-18T08:58:50.762Z,16.51
2022-10-18T08:59:52.328Z,16.55
2022-10-18T09:00:53.845Z,16.62
2022-10-18T09:02:10.739Z,16.65
2022-10-18T09:03:49.119Z,16.72
2022-10-18T09:05:02.714Z,16.79
2022-10-18T09:06:09.211Z,16.84
2022-10-18T09:07:38.597Z,16.89
2022-10-18T09:08:48.022Z,16.94
2022-10-18T09:10:14.394Z,16.99
2022-10-18T09:11:40.173Z,16.97
2022-10-18T09:13:13.863Z,16.96
2022-10-18T09:14:56.294Z,16.96
2022-10-18T09:15:59.730Z,16.91
2022-10-18T09:17:01.253Z,16.90
2022-10-18T09:18:41.824Z,16.89
2022-10-18T09:20:17.840Z,16.91
2022-10-18T09:21:45.630Z,17.03
2022-10-18T09:23:01.442Z,17.09
2022-10-18T09:24:12.183Z,17.52
2022-10-18T09:25:28.717Z,18.01
2022-10-18T09:26:31.761Z,18.03
2022-10-18T09:28:11.518Z,17.85
2022-10-18T09:29:13.153Z,17.98
2022-10-18T09:30:35.426Z,17.95
2022-10-18T09:31:43.175Z,17.91
2022-10-18T09:33:10.987Z,17.82
2022-10-18T09:34:19.821Z,17.75
2022-10-18T09:35:44.366Z,17.64
2022-10-18T09:36:45.946Z,17.61
2022-10-18T09:37:47.921Z,17.58
2022-10-18T09:38:56.151Z,17.57
2022-10-18T09:40:33.399Z,17.58
2022-10-18T09:41:41.379Z,17.64
2022-10-18T09:42:53.593Z,17.62
2022-10-18T09:44:27.446Z,17.61
2022-10-18T09:45:34.760Z,17.65
2022-10-18T09:46:41.264Z,17.68
2022-10-18T09:47:46.446Z,17.74
2022-10-18T09:48:57.978Z,17.75
2022-10-18T09:50:01.792Z,17.78
2022-10-18T09:51:30.216Z,17.82
2022-10-18T09:52:35.931Z,17.85
2022-10-18T09:53:46.229Z,17.84
2022-10-18T09:54:55.508Z,17.88
2022-10-18T09:56:06.213Z,17.91
2022-10-18T09:57:13.215Z,17.88
2022-10-18T09:58:14.857Z,17.92
2022-10-18T09:59:35.652Z,17.92
2022-10-18T10:00:49.670Z,17.96
2022-10-18T10:01:51.218Z,17.99
2022-10-18T10:02:52.833Z,18.03
2022-10-18T10:03:54.503Z,18.03
2022-10-18T10:04:56.456Z,18.02
2022-10-18T10:06:13.311Z,18.05
2022-10-18T10:07:32.636Z,18.05
2022-10-18T10:08:36.435Z,18.15
2022-10-18T10:09:59.871Z,18.23
2022-10-18T10:11:01.437Z,18.28
2022-10-18T10:12:03.103Z,18.37
2022-10-18T10:13:07.592Z,18.40
2022-10-18T10:14:12.550Z,18.45
2022-10-18T10:15:23.198Z,18.54
2022-10-18T10:16:24.819Z,18.53
2022-10-18T10:17:26.546Z,18.56
2022-10-18T10:18:30.335Z,18.47
2022-10-18T10:19:40.244Z,18.53
2022-10-18T10:20:46.408Z,18.52
2022-10-18T10:21:48.710Z,18.56
2022-10-18T10:22:50.421Z,18.60
2022-10-18T10:23:54.245Z,18.60
2022-10-18T10:24:55.809Z,18.57
2022-10-18T10:26:24.680Z,18.59
2022-10-18T10:27:34.725Z,18.59
2022-10-18T10:28:37.416Z,18.63
2022-10-18T10:29:47.673Z,18.64
2022-10-18T10:30:49.306Z,18.61
2022-10-18T10:32:04.162Z,18.61
2022-10-18T10:33:06.042Z,18.59
2022-10-18T10:34:13.158Z,18.67
2022-10-18T10:35:59.636Z,18.71
2022-10-18T10:37:01.209Z,18.81
2022-10-18T10:38:02.921Z,18.83
2022-10-18T10:39:12.243Z,18.90
2022-10-18T10:40:27.660Z,18.93
2022-10-18T10:41:30.197Z,18.87
2022-10-18T10:42:32.236Z,18.87
2022-10-18T10:43:39.736Z,18.84
2022-10-18T10:44:41.969Z,18.81
2022-10-18T10:45:59.507Z,18.78
2022-10-18T10:47:01.394Z,18.70
2022-10-18T10:48:15.813Z,18.70
2022-10-18T10:49:41.200Z,18.73
2022-10-18T10:51:06.486Z,18.67
2022-10-18T10:52:26.251Z,18.66
2022-10-18T10:53:42.085Z,18.64
2022-10-18T10:54:46.491Z,18.64
2022-10-18T10:55:54.193Z,18.61
2022-10-18T10:57:03.106Z,18.67
2022-10-18T10:58:04.714Z,18.73
2022-10-18T10:59:17.300Z,18.77
2022-10-18T11:00:34.011Z,18.76
2022-10-18T11:01:36.474Z,18.77
2022-10-18T11:02:38.160Z,18.80
2022-10-18T11:03:39.834Z,18.81
2022-10-18T11:04:41.839Z,18.83
2022-10-18T11:05:53.094Z,18.86
2022-10-18T11:07:09.868Z,18.87
2022-10-18T11:08:12.017Z,18.91
2022-10-18T11:09:25.108Z,18.96
2022-10-18T11:10:32.201Z,18.97
2022-10-18T11:11:35.229Z,19.01
2022-10-18T11:12:38.860Z,19.03
2022-10-18T11:13:49.997Z,19.04
2022-10-18T11:14:59.370Z,19.08
2022-10-18T11:16:05.250Z,19.07
2022-10-18T11:17:27.890Z,19.04
2022-10-18T11:18:36.742Z,19.03
2022-10-18T11:20:11.848Z,19.04
2022-10-18T11:21:15.878Z,19.06
2022-10-18T11:22:19.753Z,19.07
2022-10-18T11:23:21.322Z,19.01
2022-10-18T11:24:22.927Z,19.08
2022-10-18T11:25:26.991Z,19.12
2022-10-18T11:26:39.456Z,19.14
2022-10-18T11:28:10.532Z,19.17
2022-10-18T11:29:16.398Z,19.21
2022-10-18T11:30:36.090Z,19.27
2022-10-18T11:31:52.930Z,19.34
2022-10-18T11:33:00.496Z,19.36
2022-10-18T11:34:09.626Z,19.39
2022-10-18T11:35:35.819Z,19.41
2022-10-18T11:37:25.853Z,19.44
2022-10-18T11:38:38.649Z,19.45
2022-10-18T11:40:02.983Z,19.47
2022-10-18T11:41:26.667Z,19.48
2022-10-18T11:42:39.941Z,19.54
2022-10-18T11:44:02.675Z,19.58
2022-10-18T11:45:11.136Z,19.54
2022-10-18T11:46:15.803Z,19.54
2022-10-18T11:47:26.061Z,19.52
2022-10-18T11:48:49.154Z,19.49
2022-10-18T11:50:12.261Z,19.51
2022-10-18T11:51:15.972Z,19.57
2022-10-18T11:53:08.637Z,19.62
2022-10-18T11:54:19.946Z,19.65
2022-10-18T11:55:50.676Z,19.63
2022-10-18T11:57:02.049Z,19.62
2022-10-18T11:58:13.118Z,19.58
2022-10-18T11:59:36.099Z,19.58
2022-10-18T12:00:49.338Z,19.59
2022-10-18T12:02:37.493Z,19.55
2022-10-18T12:04:14.162Z,19.58
2022-10-18T12:05:23.489Z,19.63
2022-10-18T12:06:28.843Z,19.66
2022-10-18T12:07:35.309Z,19.65
2022-10-18T12:08:42.547Z,19.68
2022-10-18T12:09:45.698Z,19.72
2022-10-18T12:11:07.091Z,19.72
2022-10-18T12:12:23.503Z,19.73
2022-10-18T12:13:47.972Z,19.70
2022-10-18T12:15:04.762Z,19.70
2022-10-18T12:16:07.169Z,19.70
2022-10-18T12:17:42.081Z,19.70
2022-10-18T12:18:59.688Z,19.75
2022-10-18T12:20:17.001Z,19.73
2022-10-18T12:21:24.559Z,19.72
2022-10-18T12:22:34.987Z,19.73
2022-10-18T12:23:46.484Z,19.72
2022-10-18T12:24:48.046Z,19.70
2022-10-18T12:25:51.552Z,19.70
2022-10-18T12:26:54.428Z,19.75
2022-10-18T12:28:25.398Z,19.73
2022-10-18T12:29:40.659Z,19.76
2022-10-18T12:30:42.976Z,19.75
2022-10-18T12:31:52.356Z,19.78
2022-10-18T12:33:16.537Z,19.76
2022-10-18T12:34:24.926Z,19.78
2022-10-18T12:35:26.502Z,19.79
2022-10-18T12:38:24.775Z,19.73
2022-10-18T12:39:43.395Z,19.72
2022-10-18T12:40:55.279Z,19.70
2022-10-18T12:41:57.091Z,19.70
2022-10-18T12:42:58.668Z,19.69
2022-10-18T12:44:04.600Z,19.72
2022-10-18T12:45:07.223Z,19.70
2022-10-18T12:46:13.720Z,19.70
2022-10-18T12:47:24.933Z,19.69
2022-10-18T12:48:35.272Z,19.69
2022-10-18T12:49:40.255Z,19.70
2022-10-18T12:50:44.236Z,19.70
2022-10-18T12:51:58.157Z,19.70
2022-10-18T12:53:09.857Z,19.72
2022-10-18T12:54:11.758Z,19.72
2022-10-18T12:55:16.702Z,19.72
2022-10-18T12:56:28.398Z,19.73
2022-10-18T12:57:51.667Z,19.72
2022-10-18T12:58:53.617Z,19.75
2022-10-18T12:59:55.165Z,19.73
2022-10-18T13:01:06.760Z,19.78
2022-10-18T13:02:10.260Z,19.83
2022-10-18T13:03:20.902Z,19.85
2022-10-18T13:04:28.219Z,19.85
2022-10-18T13:05:56.191Z,19.86
2022-10-18T13:07:02.938Z,19.89
2022-10-18T13:08:30.403Z,19.92
2022-10-18T13:09:36.305Z,19.87
2022-10-18T13:10:38.245Z,19.92
2022-10-18T13:11:40.435Z,19.89
2022-10-18T13:12:51.266Z,19.89
2022-10-18T13:14:23.900Z,19.83
2022-10-18T13:15:49.728Z,19.86
2022-10-18T13:17:05.576Z,19.83
2022-10-18T13:18:14.909Z,19.85
2022-10-18T13:19:34.311Z,19.83
2022-10-18T13:20:41.596Z,19.86
2022-10-18T13:22:04.643Z,19.90
2022-10-18T13:23:37.137Z,19.90
2022-10-18T13:24:47.098Z,19.86
2022-10-18T13:26:21.577Z,19.82
2022-10-18T13:27:43.690Z,19.75
2022-10-18T13:29:08.450Z,19.79
2022-10-18T13:30:42.355Z,19.78
2022-10-18T13:31:49.661Z,19.79
2022-10-18T13:32:57.454Z,19.82
2022-10-18T13:34:17.765Z,19.82
2022-10-18T13:35:55.334Z,19.85
2022-10-18T13:36:59.217Z,19.83
2022-10-18T13:38:00.801Z,19.80
2022-10-18T13:39:04.984Z,19.83
2022-10-18T13:40:25.108Z,19.82
2022-10-18T13:41:30.256Z,19.85
2022-10-18T13:42:34.780Z,19.83
2022-10-18T13:44:11.800Z,19.85
2022-10-18T13:45:31.932Z,19.80
2022-10-18T13:46:33.477Z,19.75
2022-10-18T13:47:38.338Z,19.75
2022-10-18T13:48:39.861Z,19.73
2022-10-18T13:50:22.347Z,19.69
2022-10-18T13:51:52.905Z,19.70
2022-10-18T13:53:04.835Z,19.72
2022-10-18T13:54:21.641Z,19.70
2022-10-18T13:55:33.243Z,19.72
2022-10-18T13:57:02.456Z,19.73
2022-10-18T13:58:04.011Z,19.73
2022-10-18T13:59:30.391Z,19.75
2022-10-18T14:00:59.619Z,19.79
2022-10-18T14:02:50.064Z,19.82
2022-10-18T14:04:15.204Z,19.85
2022-10-18T14:05:41.100Z,19.90
2022-10-18T14:06:43.242Z,19.93
2022-10-18T14:07:44.811Z,19.93
2022-10-18T14:09:14.158Z,19.97
2022-10-18T14:11:01.734Z,20.01
2022-10-18T14:12:27.547Z,20.00
2022-10-18T14:13:34.357Z,19.99
2022-10-18T14:14:41.248Z,20.00
2022-10-18T14:15:42.826Z,19.99
2022-10-18T14:17:23.106Z,19.99
2022-10-18T14:18:31.835Z,19.99
2022-10-18T14:19:39.592Z,19.99
2022-10-18T14:21:12.319Z,19.99
2022-10-18T14:22:58.871Z,19.96
2022-10-18T14:24:00.454Z,19.94
2022-10-18T14:25:02.065Z,19.92
2022-10-18T14:26:18.675Z,19.87
2022-10-18T14:27:21.951Z,19.83
2022-10-18T14:28:41.771Z,19.76
2022-10-18T14:29:46.155Z,19.69
2022-10-18T14:31:07.288Z,19.65
2022-10-18T14:32:22.263Z,19.62
2022-10-18T14:33:36.988Z,19.59